Time;durP1;ratioP1;P1;durP2;ratioP2;P2;SDS_P1;SDS_P2;PMS_P1;PMS_P2;Temp;Humidity;BMP_temperature;BMP_pressure;BME280_temperature;BME280_humidity;BME280_pressure;Samples;Min_cycle;Max_cycle;Signal;HPM_P1;HPM_P2
2024/01/13 00:00:19;;;;;;;0.80;0.80;;;-5.50;99.90;;;;;;5034706;28;20191;-76
2024/01/13 00:02:45;;;;;;;0.88;0.88;;;-5.60;99.90;;;;;;5034562;28;20229;-76
2024/01/13 00:05:10;;;;;;;0.90;0.90;;;-5.60;99.90;;;;;;5034689;28;20292;-76
2024/01/13 00:07:39;;;;;;;1.10;1.10;;;-5.60;99.90;;;;;;5034499;28;20272;-76
2024/01/13 00:10:04;;;;;;;1.83;1.73;;;-5.50;99.90;;;;;;5034484;28;20233;-76
2024/01/13 00:12:30;;;;;;;0.90;0.90;;;-5.60;99.90;;;;;;5033297;28;20198;-76
2024/01/13 00:14:56;;;;;;;0.90;0.90;;;-5.60;99.90;;;;;;5016806;28;20580;-76
2024/01/13 00:17:21;;;;;;;0.80;0.80;;;-5.70;99.90;;;;;;5034142;28;20642;-76
2024/01/13 00:19:47;;;;;;;0.95;0.95;;;-5.70;99.90;;;;;;5034668;28;20196;-76
2024/01/13 00:22:13;;;;;;;0.80;0.80;;;-5.70;99.90;;;;;;5034375;28;20198;-76
2024/01/13 00:24:38;;;;;;;0.90;0.90;;;-5.50;99.90;;;;;;5034027;28;20244;-76
2024/01/13 00:27:04;;;;;;;2.63;1.30;;;-5.40;99.90;;;;;;5034385;28;20194;-76
2024/01/13 00:29:30;;;;;;;1.88;1.67;;;-5.30;99.90;;;;;;5034030;28;20269;-76
2024/01/13 00:31:57;;;;;;;1.48;1.38;;;-5.30;99.90;;;;;;5034385;28;20590;-75
2024/01/13 00:34:23;;;;;;;0.90;0.90;;;-5.30;99.90;;;;;;5032629;28;20389;-76
2024/01/13 00:36:49;;;;;;;1.15;1.15;;;-5.20;99.90;;;;;;5016671;28;20292;-76
2024/01/13 00:39:14;;;;;;;1.05;1.05;;;-5.30;99.90;;;;;;5033761;28;20273;-76
2024/01/13 00:41:40;;;;;;;0.80;0.80;;;-5.20;99.90;;;;;;5016167;28;20202;-76
2024/01/13 00:44:05;;;;;;;0.90;0.90;;;-5.20;99.90;;;;;;5033509;28;20281;-76
2024/01/13 00:46:32;;;;;;;0.70;0.70;;;-5.10;99.90;;;;;;5033614;28;20566;-76
2024/01/13 00:48:57;;;;;;;0.70;0.70;;;-5.00;99.90;;;;;;5033808;28;20644;-76
2024/01/13 00:51:23;;;;;;;0.93;0.93;;;-4.90;99.90;;;;;;5033466;28;20197;-76
2024/01/13 00:53:48;;;;;;;0.90;0.90;;;-4.70;99.90;;;;;;5015954;28;20214;-75
2024/01/13 00:56:14;;;;;;;0.90;0.90;;;-4.60;99.90;;;;;;5033827;28;20248;-76
2024/01/13 00:58:40;;;;;;;4.15;1.50;;;-4.50;99.90;;;;;;5015624;28;20233;-76
2024/01/13 01:01:06;;;;;;;0.80;0.80;;;-4.40;99.90;;;;;;5032451;28;20319;-76
2024/01/13 01:03:31;;;;;;;0.90;0.90;;;-4.30;99.90;;;;;;5032074;28;20297;-76
2024/01/13 01:05:58;;;;;;;0.98;0.98;;;-4.20;99.90;;;;;;5033683;28;20186;-75
2024/01/13 01:08:24;;;;;;;0.77;0.77;;;-4.20;99.90;;;;;;5033321;28;20664;-76
2024/01/13 01:10:49;;;;;;;0.88;0.88;;;-4.20;99.90;;;;;;5033580;28;20312;-75
2024/01/13 01:13:15;;;;;;;0.90;0.90;;;-4.30;99.90;;;;;;5033449;28;20544;-76
2024/01/13 01:15:41;;;;;;;0.80;0.80;;;-4.40;99.90;;;;;;5015830;28;20190;-76
2024/01/13 01:18:07;;;;;;;0.90;0.90;;;-4.50;99.90;;;;;;5015842;28;20252;-76
2024/01/13 01:20:33;;;;;;;0.73;0.73;;;-4.60;99.90;;;;;;5031735;28;20198;-76
2024/01/13 01:22:58;;;;;;;0.80;0.80;;;-4.60;99.90;;;;;;5033505;28;20195;-76
2024/01/13 01:25:24;;;;;;;0.90;0.90;;;-4.60;99.90;;;;;;5033106;28;20618;-76
2024/01/13 01:27:49;;;;;;;0.90;0.90;;;-4.70;99.90;;;;;;5033521;28;20228;-76
2024/01/13 01:30:15;;;;;;;0.80;0.80;;;-4.70;99.90;;;;;;5033257;28;20210;-76
2024/01/13 01:32:41;;;;;;;0.82;0.82;;;-4.70;99.90;;;;;;5033273;28;20731;-76
2024/01/13 01:35:07;;;;;;;0.68;0.68;;;-4.80;99.90;;;;;;5033089;28;20197;-76
2024/01/13 01:37:36;;;;;;;0.90;0.90;;;-4.80;99.90;;;;;;5032028;28;20696;-76
2024/01/13 01:40:01;;;;;;;0.90;0.90;;;-4.80;99.90;;;;;;5047088;28;20186;-78
2024/01/13 01:42:27;;;;;;;0.90;0.90;;;-4.70;99.90;;;;;;5057963;28;20185;-78
2024/01/13 01:44:53;;;;;;;0.82;0.82;;;-4.60;99.90;;;;;;5057173;28;20237;-78
2024/01/13 01:47:21;;;;;;;0.73;0.73;;;-4.60;99.90;;;;;;5057262;28;20178;-78
2024/01/13 01:49:48;;;;;;;0.82;0.82;;;-4.60;99.90;;;;;;5057682;28;20191;-78
2024/01/13 01:52:16;;;;;;;0.88;0.88;;;-4.60;99.90;;;;;;5054972;28;20201;-78
2024/01/13 01:54:43;;;;;;;0.80;0.80;;;-4.50;99.90;;;;;;5053516;28;20613;-79
2024/01/13 01:57:14;;;;;;;1.45;1.35;;;-4.50;99.90;;;;;;5056187;28;20206;-79
2024/01/13 01:59:40;;;;;;;0.90;0.90;;;-4.40;99.90;;;;;;5061097;28;20182;-78
2024/01/13 02:02:07;;;;;;;1.95;1.33;;;-4.40;99.90;;;;;;5059402;28;20221;-79
2024/01/13 02:04:33;;;;;;;0.70;0.70;;;-4.40;99.90;;;;;;5058464;28;20273;-78
2024/01/13 02:06:59;;;;;;;0.85;0.85;;;-4.30;99.90;;;;;;5058135;28;20189;-79
2024/01/13 02:09:26;;;;;;;0.90;0.90;;;-4.30;99.90;;;;;;5050479;28;20701;-79
2024/01/13 02:11:52;;;;;;;0.80;0.80;;;-4.10;99.90;;;;;;5040076;28;20209;-80
2024/01/13 02:14:17;;;;;;;0.90;0.90;;;-4.10;99.90;;;;;;5038745;28;20193;-79
2024/01/13 02:16:43;;;;;;;0.88;0.88;;;-4.10;99.90;;;;;;5037737;28;20206;-79
2024/01/13 02:19:09;;;;;;;0.90;0.90;;;-4.00;99.90;;;;;;5037306;28;20688;-79
2024/01/13 02:21:38;;;;;;;0.80;0.80;;;-3.90;99.90;;;;;;5037049;28;20198;-79
2024/01/13 02:24:04;;;;;;;0.70;0.70;;;-3.80;99.90;;;;;;5019300;28;20214;-79
2024/01/13 02:26:33;;;;;;;0.80;0.80;;;-3.70;99.90;;;;;;5036510;28;20201;-79
2024/01/13 02:28:59;;;;;;;0.80;0.80;;;-3.70;99.90;;;;;;5036957;28;20659;-79
2024/01/13 02:31:24;;;;;;;0.98;0.98;;;-3.60;99.90;;;;;;5036900;28;20233;-79
2024/01/13 02:33:53;;;;;;;0.80;0.80;;;-3.60;99.90;;;;;;5037335;28;20202;-80
2024/01/13 02:36:19;;;;;;;0.80;0.80;;;-3.60;99.90;;;;;;5036827;28;20198;-79
2024/01/13 02:38:44;;;;;;;0.80;0.80;;;-3.60;99.90;;;;;;5037618;28;20603;-79
2024/01/13 02:41:10;;;;;;;0.93;0.93;;;-3.60;99.90;;;;;;5036935;28;20290;-79
2024/01/13 02:43:36;;;;;;;0.70;0.70;;;-3.60;99.90;;;;;;5036327;28;20248;-79
2024/01/13 02:46:03;;;;;;;0.80;0.80;;;-3.60;99.90;;;;;;5033902;28;20233;-80
2024/01/13 02:48:33;;;;;;;0.85;0.85;;;-3.60;99.90;;;;;;5016433;28;20222;-80
2024/01/13 02:51:01;;;;;;;0.70;0.70;;;-3.60;99.90;;;;;;5035057;28;20209;-77
2024/01/13 02:53:27;;;;;;;0.77;0.77;;;-3.60;99.90;;;;;;5035978;28;20194;-77
2024/01/13 02:55:53;;;;;;;0.80;0.80;;;-3.60;99.90;;;;;;5036046;28;20205;-77
2024/01/13 02:58:19;;;;;;;0.80;0.80;;;-3.70;99.90;;;;;;5018331;28;20202;-77
2024/01/13 03:00:44;;;;;;;0.80;0.80;;;-3.70;99.90;;;;;;5035893;28;20597;-77
2024/01/13 03:03:10;;;;;;;0.80;0.80;;;-3.60;99.90;;;;;;5035702;28;20533;-77
2024/01/13 03:05:36;;;;;;;0.80;0.80;;;-3.60;99.90;;;;;;5035900;28;20194;-77
2024/01/13 03:08:02;;;;;;;0.75;0.75;;;-3.50;99.90;;;;;;5035368;28;20190;-78
2024/01/13 03:10:28;;;;;;;0.70;0.70;;;-3.60;99.90;;;;;;5035874;28;20654;-77
2024/01/13 03:12:54;;;;;;;0.80;0.80;;;-3.60;99.90;;;;;;5035942;28;20567;-77
2024/01/13 03:15:26;;;;;;;0.80;0.80;;;-3.70;99.90;;;;;;5035843;28;20273;-77
2024/01/13 03:17:51;;;;;;;0.80;0.80;;;-3.70;99.90;;;;;;5035813;28;20252;-77
2024/01/13 03:20:20;;;;;;;3.90;2.05;;;-3.70;99.90;;;;;;5035728;28;20692;-77
2024/01/13 03:22:45;;;;;;;0.88;0.88;;;-3.70;99.90;;;;;;5035656;28;20727;-78
2024/01/13 03:25:11;;;;;;;1.30;1.23;;;-3.80;99.90;;;;;;5035456;28;20207;-78
2024/01/13 03:27:37;;;;;;;0.90;0.90;;;-3.80;99.90;;;;;;5035104;28;20201;-78
2024/01/13 03:30:08;;;;;;;0.90;0.90;;;-3.80;99.90;;;;;;5035622;28;20267;-77
2024/01/13 03:32:34;;;;;;;1.42;1.33;;;-3.90;99.90;;;;;;5034968;28;20248;-78
2024/01/13 03:34:59;;;;;;;0.82;0.82;;;-3.90;99.90;;;;;;5035336;28;20285;-77
2024/01/13 03:37:25;;;;;;;0.70;0.70;;;-3.90;99.90;;;;;;5033854;28;20292;-77
2024/01/13 03:39:51;;;;;;;0.80;0.80;;;-3.80;99.90;;;;;;5035424;28;20198;-78
2024/01/13 03:42:16;;;;;;;0.80;0.80;;;-3.80;99.90;;;;;;5035290;28;20200;-77
2024/01/13 03:44:42;;;;;;;1.00;1.00;;;-3.90;99.90;;;;;;5035149;28;20212;-77
2024/01/13 03:47:08;;;;;;;0.82;0.82;;;-3.80;99.90;;;;;;5035364;28;20190;-78
2024/01/13 03:49:33;;;;;;;0.75;0.75;;;-3.80;99.90;;;;;;5034914;28;20205;-77
2024/01/13 03:51:59;;;;;;;0.82;0.82;;;-3.90;99.90;;;;;;5035124;28;20218;-78
2024/01/13 03:54:24;;;;;;;0.80;0.80;;;-3.80;99.90;;;;;;5017037;28;20297;-77
2024/01/13 03:56:51;;;;;;;0.80;0.80;;;-3.70;99.90;;;;;;5017147;28;20292;-77
2024/01/13 03:59:17;;;;;;;0.90;0.88;;;-3.60;99.90;;;;;;5034989;28;20730;-78
2024/01/13 04:01:42;;;;;;;10.00;2.70;;;-3.50;99.90;;;;;;5021188;28;20275;-77
2024/01/13 04:04:09;;;;;;;0.80;0.80;;;-3.30;99.90;;;;;;5028153;28;20304;-78
2024/01/13 04:06:39;;;;;;;0.77;0.77;;;-3.30;99.90;;;;;;5034474;28;20190;-78
2024/01/13 04:09:05;;;;;;;0.70;0.70;;;-3.20;99.90;;;;;;5034510;28;20546;-78
2024/01/13 04:11:31;;;;;;;1.40;1.30;;;-3.00;99.90;;;;;;5016756;28;20194;-78
2024/01/13 04:13:57;;;;;;;0.80;0.80;;;-3.00;99.90;;;;;;5034656;28;20198;-78
2024/01/13 04:16:22;;;;;;;0.80;0.80;;;-2.90;99.90;;;;;;5034377;28;20226;-78
2024/01/13 04:18:48;;;;;;;0.90;0.90;;;-2.90;99.90;;;;;;5016619;28;20226;-78
2024/01/13 04:21:14;;;;;;;0.80;0.80;;;-2.80;99.90;;;;;;5034034;28;20205;-77
2024/01/13 04:23:39;;;;;;;0.70;0.70;;;-2.80;99.90;;;;;;5033988;28;20214;-78
2024/01/13 04:26:06;;;;;;;0.70;0.70;;;-2.70;99.90;;;;;;5034381;28;20673;-78
2024/01/13 04:28:31;;;;;;;0.80;0.80;;;-2.60;99.90;;;;;;5034043;28;20194;-78
2024/01/13 04:30:57;;;;;;;0.70;0.70;;;-2.60;99.90;;;;;;5034608;28;20198;-78
2024/01/13 04:33:23;;;;;;;4.13;1.48;;;-2.50;99.90;;;;;;5016389;28;20248;-78
2024/01/13 04:35:48;;;;;;;0.60;0.60;;;-2.50;99.90;;;;;;5034286;28;20277;-78
2024/01/13 04:38:14;;;;;;;0.80;0.80;;;-2.50;99.90;;;;;;5034040;28;20283;-78
2024/01/13 04:40:40;;;;;;;0.80;0.80;;;-2.50;99.90;;;;;;5033956;28;20288;-77
2024/01/13 04:43:06;;;;;;;0.98;0.98;;;-2.50;99.90;;;;;;5034327;28;20201;-79
2024/01/13 04:45:31;;;;;;;0.70;0.70;;;-2.40;99.90;;;;;;5016119;28;20210;-77
2024/01/13 04:47:58;;;;;;;0.90;0.90;;;-2.40;99.90;;;;;;5034261;28;20190;-78
2024/01/13 04:50:23;;;;;;;0.60;0.60;;;-2.40;99.90;;;;;;5033796;28;20281;-78
2024/01/13 04:52:49;;;;;;;0.70;0.70;;;-2.40;99.90;;;;;;5034005;28;20277;-78
2024/01/13 04:55:15;;;;;;;0.60;0.60;;;-2.40;99.90;;;;;;5016533;28;20252;-78
2024/01/13 04:57:40;;;;;;;0.80;0.80;;;-2.40;99.90;;;;;;5015708;28;20201;-78
2024/01/13 05:00:07;;;;;;;0.70;0.70;;;-2.40;99.90;;;;;;5033799;28;20198;-78
2024/01/13 05:02:33;;;;;;;0.80;0.80;;;-2.40;99.90;;;;;;5033291;28;20977;-77
2024/01/13 05:04:59;;;;;;;0.80;0.80;;;-2.30;99.90;;;;;;5033682;28;20233;-78
2024/01/13 05:07:24;;;;;;;0.80;0.80;;;-2.30;99.90;;;;;;5033646;28;20217;-78
2024/01/13 05:09:50;;;;;;;0.80;0.80;;;-2.40;99.90;;;;;;5033587;28;20228;-80
2024/01/13 05:12:21;;;;;;;0.80;0.80;;;-2.40;99.90;;;;;;5033770;28;20271;-79
2024/01/13 05:14:46;;;;;;;0.80;0.80;;;-2.40;99.90;;;;;;5033357;28;20198;-79
2024/01/13 05:17:12;;;;;;;0.75;0.75;;;-2.40;99.90;;;;;;5032089;28;20750;-79
2024/01/13 05:19:38;;;;;;;2.08;1.88;;;-2.40;99.90;;;;;;5033374;28;20197;-80
2024/01/13 05:22:03;;;;;;;0.80;0.80;;;-2.40;99.90;;;;;;5015861;28;20561;-79
2024/01/13 05:24:29;;;;;;;0.80;0.80;;;-2.30;99.90;;;;;;5033093;28;20674;-78
2024/01/13 05:26:55;;;;;;;0.90;0.90;;;-2.40;99.90;;;;;;5033531;28;20190;-78
2024/01/13 05:29:21;;;;;;;0.77;0.77;;;-2.30;99.90;;;;;;5015421;28;20678;-79
2024/01/13 05:31:47;;;;;;;1.05;1.05;;;-2.30;99.90;;;;;;5033500;28;20275;-79
2024/01/13 05:34:13;;;;;;;0.80;0.80;;;-2.30;99.90;;;;;;5033292;28;20664;-78
2024/01/13 05:36:39;;;;;;;0.70;0.70;;;-2.30;99.90;;;;;;5032807;28;21325;-79
2024/01/13 05:39:04;;;;;;;0.70;0.70;;;-2.30;99.90;;;;;;5015449;28;20292;-79
2024/01/13 05:41:30;;;;;;;0.70;0.70;;;-2.30;99.90;;;;;;5032972;28;20198;-79
2024/01/13 05:43:55;;;;;;;0.70;0.70;;;-2.30;99.90;;;;;;5033196;28;20217;-79
2024/01/13 05:46:21;;;;;;;0.70;0.70;;;-2.30;99.90;;;;;;5015340;28;20200;-80
2024/01/13 05:48:47;;;;;;;0.98;0.98;;;-2.30;99.90;;;;;;5033330;28;20186;-79
2024/01/13 05:51:12;;;;;;;0.70;0.70;;;-2.30;99.90;;;;;;5032947;28;20293;-78
2024/01/13 05:53:38;;;;;;;0.85;0.85;;;-2.30;99.90;;;;;;5032790;28;20732;-79
2024/01/13 05:56:06;;;;;;;0.90;0.90;;;-2.30;99.90;;;;;;5033095;28;20638;-78
2024/01/13 05:58:32;;;;;;;1.02;1.02;;;-2.30;99.90;;;;;;5031516;28;20205;-79
2024/01/13 06:00:59;;;;;;;0.80;0.80;;;-2.30;99.90;;;;;;5015212;28;20206;-81
2024/01/13 06:03:25;;;;;;;1.17;1.00;;;-2.40;99.90;;;;;;5031531;28;20206;-79
2024/01/13 06:05:51;;;;;;;0.80;0.80;;;-2.40;99.90;;;;;;5033218;28;20201;-79
2024/01/13 06:08:17;;;;;;;0.80;0.80;;;-2.40;99.90;;;;;;5015356;28;20194;-79
2024/01/13 06:10:43;;;;;;;0.80;0.80;;;-2.40;99.90;;;;;;5032818;28;20305;-80
2024/01/13 06:13:08;;;;;;;0.90;0.90;;;-2.40;99.90;;;;;;5033080;28;20320;-80
2024/01/13 06:15:34;;;;;;;0.75;0.75;;;-2.40;99.90;;;;;;5032303;28;20198;-79
2024/01/13 06:18:00;;;;;;;0.70;0.70;;;-2.30;99.90;;;;;;5032864;28;20626;-79
2024/01/13 06:20:25;;;;;;;2.45;2.25;;;-2.40;99.90;;;;;;5032708;28;20272;-77
2024/01/13 06:22:51;;;;;;;0.88;0.88;;;-2.30;99.90;;;;;;5032667;28;20198;-77
2024/01/13 06:25:17;;;;;;;0.75;0.75;;;-2.30;99.90;;;;;;5031154;28;20292;-77
2024/01/13 06:27:43;;;;;;;1.00;1.00;;;-2.30;99.90;;;;;;5031529;28;20198;-76
2024/01/13 06:30:10;;;;;;;0.98;0.98;;;-2.40;99.90;;;;;;5032765;28;20218;-77
2024/01/13 06:32:36;;;;;;;0.80;0.80;;;-2.40;99.90;;;;;;5032511;28;20638;-77
2024/01/13 06:35:02;;;;;;;0.75;0.75;;;-2.30;99.90;;;;;;5032834;28;20226;-77
2024/01/13 06:37:28;;;;;;;9.80;1.17;;;-2.30;99.90;;;;;;5015096;28;20201;-76
2024/01/13 06:39:54;;;;;;;0.80;0.80;;;-2.30;99.90;;;;;;5032765;28;20252;-76
2024/01/13 06:42:19;;;;;;;0.60;0.60;;;-2.30;99.90;;;;;;5032627;28;20194;-77
2024/01/13 06:44:45;;;;;;;0.70;0.70;;;-2.30;99.90;;;;;;5036237;28;20205;-77
2024/01/13 06:47:11;;;;;;;1.38;1.27;;;-2.30;99.90;;;;;;5036494;28;20713;-77
2024/01/13 06:49:37;;;;;;;1.25;1.17;;;-2.40;99.90;;;;;;5036345;28;20194;-78
2024/01/13 06:52:03;;;;;;;0.93;0.93;;;-2.30;99.90;;;;;;5036924;28;20273;-77
2024/01/13 06:54:29;;;;;;;0.73;0.73;;;-2.30;99.90;;;;;;5037677;28;20194;-77
2024/01/13 06:56:54;;;;;;;0.70;0.70;;;-2.30;99.90;;;;;;5039839;28;20248;-77
2024/01/13 06:59:20;;;;;;;0.85;0.85;;;-2.30;99.90;;;;;;5060252;28;20206;-77
2024/01/13 07:01:49;;;;;;;0.70;0.70;;;-2.30;99.90;;;;;;5043238;28;20190;-77
2024/01/13 07:04:15;;;;;;;0.60;0.60;;;-2.30;99.90;;;;;;5059865;28;20210;-78
2024/01/13 07:06:40;;;;;;;2.35;2.15;;;-2.30;99.90;;;;;;5060360;28;20234;-77
2024/01/13 07:09:06;;;;;;;6.63;1.77;;;-2.30;99.90;;;;;;5060376;28;20194;-77
2024/01/13 07:11:31;;;;;;;0.80;0.80;;;-2.30;99.90;;;;;;5042322;28;20205;-77
2024/01/13 07:13:57;;;;;;;0.80;0.80;;;-2.30;99.90;;;;;;5057847;28;20189;-77
2024/01/13 07:16:23;;;;;;;0.80;0.80;;;-2.40;99.90;;;;;;5056475;28;20210;-77
2024/01/13 07:18:48;;;;;;;0.88;0.88;;;-2.30;99.90;;;;;;5053215;28;20199;-76
2024/01/13 07:21:14;;;;;;;0.88;0.88;;;-2.30;99.90;;;;;;5036544;28;20209;-76
2024/01/13 07:23:43;;;;;;;0.65;0.65;;;-2.30;99.90;;;;;;5035601;28;20241;-76
2024/01/13 07:26:09;;;;;;;0.80;0.80;;;-2.40;99.90;;;;;;5035172;28;20198;-76
2024/01/13 07:28:34;;;;;;;0.80;0.80;;;-2.40;99.90;;;;;;5035427;28;20715;-76
2024/01/13 07:31:00;;;;;;;1.00;1.00;;;-2.40;99.90;;;;;;5036031;28;20277;-76
2024/01/13 07:33:26;;;;;;;0.90;0.90;;;-2.30;99.90;;;;;;5035364;28;20194;-76
2024/01/13 07:35:51;;;;;;;0.63;0.63;;;-2.30;99.90;;;;;;5017754;28;20662;-76
2024/01/13 07:38:17;;;;;;;0.80;0.80;;;-2.30;99.90;;;;;;5035310;28;20530;-76
2024/01/13 07:40:43;;;;;;;0.82;0.82;;;-2.30;99.90;;;;;;5035287;28;20620;-76
2024/01/13 07:43:08;;;;;;;1.08;0.98;;;-2.30;99.90;;;;;;5034927;28;20202;-75
2024/01/13 07:45:34;;;;;;;0.70;0.70;;;-2.40;99.90;;;;;;5035495;28;20216;-76
2024/01/13 07:48:00;;;;;;;0.98;0.90;;;-2.40;99.90;;;;;;5017563;28;20198;-77
2024/01/13 07:50:26;;;;;;;0.70;0.70;;;-2.40;99.90;;;;;;5034741;28;20608;-76
2024/01/13 07:52:51;;;;;;;1.02;1.02;;;-2.40;99.90;;;;;;5017475;28;20556;-76
2024/01/13 07:55:17;;;;;;;0.73;0.73;;;-2.30;99.90;;;;;;5034594;28;20202;-76
2024/01/13 07:57:42;;;;;;;0.90;0.90;;;-2.30;99.90;;;;;;5035519;28;20202;-76
2024/01/13 08:00:09;;;;;;;0.93;0.90;;;-2.40;99.90;;;;;;5017038;28;20206;-76
2024/01/13 08:02:34;;;;;;;0.60;0.60;;;-2.40;99.90;;;;;;5034449;28;20543;-76
2024/01/13 08:05:00;;;;;;;0.80;0.80;;;-2.30;99.90;;;;;;5034781;28;20339;-76
2024/01/13 08:07:26;;;;;;;1.48;1.35;;;-2.30;99.90;;;;;;5016319;28;20251;-77
2024/01/13 08:09:52;;;;;;;0.80;0.80;;;-2.40;99.90;;;;;;5034657;28;20272;-76
2024/01/13 08:12:17;;;;;;;0.70;0.70;;;-2.40;99.90;;;;;;5034558;28;20205;-76
2024/01/13 08:14:43;;;;;;;0.95;0.90;;;-2.30;99.90;;;;;;5034693;28;20198;-76
2024/01/13 08:17:09;;;;;;;0.70;0.70;;;-2.30;99.90;;;;;;5034541;28;20194;-76
2024/01/13 08:19:36;;;;;;;0.73;0.73;;;-2.30;99.90;;;;;;5034220;28;20202;-76
2024/01/13 08:22:03;;;;;;;0.77;0.77;;;-2.30;99.90;;;;;;5034431;28;20564;-76
2024/01/13 08:24:29;;;;;;;0.60;0.60;;;-2.30;99.90;;;;;;5016428;28;20217;-76
2024/01/13 08:26:55;;;;;;;0.80;0.80;;;-2.20;99.90;;;;;;5016469;28;20222;-77
2024/01/13 08:29:20;;;;;;;0.70;0.70;;;-2.20;99.90;;;;;;5034353;28;20228;-76
2024/01/13 08:31:49;;;;;;;0.80;0.80;;;-2.20;99.90;;;;;;5034749;28;20206;-76
2024/01/13 08:34:15;;;;;;;0.80;0.80;;;-2.20;99.90;;;;;;5034311;28;20658;-76
2024/01/13 08:36:41;;;;;;;0.77;0.77;;;-2.20;99.90;;;;;;5033859;28;20248;-76
2024/01/13 08:39:07;;;;;;;0.77;0.77;;;-2.20;99.90;;;;;;5034138;28;20557;-76
2024/01/13 08:41:33;;;;;;;0.70;0.70;;;-2.20;99.90;;;;;;5032446;28;20202;-77
2024/01/13 08:43:59;;;;;;;1.05;1.05;;;-2.10;99.90;;;;;;5033987;28;20213;-76
2024/01/13 08:46:25;;;;;;;0.90;0.90;;;-2.10;99.90;;;;;;5033793;28;20653;-76
2024/01/13 08:48:51;;;;;;;1.27;1.23;;;-2.00;99.90;;;;;;5034078;28;20201;-76
2024/01/13 08:51:17;;;;;;;0.82;0.82;;;-1.90;99.90;;;;;;5033844;28;20218;-77
2024/01/13 08:53:44;;;;;;;0.60;0.60;;;-1.80;99.90;;;;;;5033804;28;20190;-77
2024/01/13 08:56:09;;;;;;;0.98;0.98;;;-1.80;99.90;;;;;;5033814;28;20201;-77
2024/01/13 08:58:35;;;;;;;0.80;0.80;;;-1.80;99.90;;;;;;5033405;28;20198;-77
2024/01/13 09:01:01;;;;;;;0.75;0.75;;;-1.70;99.90;;;;;;5033709;28;20198;-76
2024/01/13 09:03:28;;;;;;;0.75;0.75;;;-1.80;99.90;;;;;;5033095;28;20229;-76
2024/01/13 09:05:54;;;;;;;0.90;0.90;;;-1.80;99.90;;;;;;5032902;28;20586;-77
2024/01/13 09:08:20;;;;;;;0.80;0.80;;;-1.70;99.90;;;;;;5033302;28;20248;-77
2024/01/13 09:10:46;;;;;;;1.00;1.00;;;-1.60;99.90;;;;;;5033212;28;20246;-77
2024/01/13 09:13:11;;;;;;;1.10;1.10;;;-1.60;99.90;;;;;;5015820;28;20194;-77
2024/01/13 09:15:37;;;;;;;0.80;0.80;;;-1.50;99.90;;;;;;5033237;28;20198;-77
2024/01/13 09:18:03;;;;;;;0.70;0.70;;;-1.50;99.90;;;;;;5033399;28;20194;-77
2024/01/13 09:20:29;;;;;;;0.80;0.80;;;-1.40;99.90;;;;;;5015120;28;20202;-77
2024/01/13 09:22:55;;;;;;;0.70;0.70;;;-1.40;99.90;;;;;;5033122;28;20206;-76
2024/01/13 09:25:21;;;;;;;0.60;0.60;;;-1.40;99.90;;;;;;5032972;28;20204;-77
2024/01/13 09:27:46;;;;;;;0.90;0.90;;;-1.30;99.90;;;;;;5033250;28;20191;-76
2024/01/13 09:30:12;;;;;;;0.70;0.70;;;-1.30;99.90;;;;;;5033290;28;20194;-76
2024/01/13 09:32:38;;;;;;;1.65;1.55;;;-1.20;99.90;;;;;;5033092;28;20669;-77
2024/01/13 09:35:04;;;;;;;0.80;0.80;;;-1.20;99.90;;;;;;5033248;28;20202;-76
2024/01/13 09:37:30;;;;;;;1.00;1.00;;;-1.10;99.90;;;;;;5032790;28;20198;-77
2024/01/13 09:39:56;;;;;;;0.90;0.90;;;-1.10;99.90;;;;;;5032929;28;20243;-77
2024/01/13 09:42:51;;;;;;;0.70;0.70;;;-1.20;99.90;;;;;;5032794;28;20280;-76
2024/01/13 09:45:18;;;;;;;2.90;2.55;;;-1.30;99.90;;;;;;5015236;28;20209;-77
2024/01/13 09:47:45;;;;;;;0.80;0.80;;;-1.30;99.90;;;;;;5033183;28;20190;-76
2024/01/13 09:50:11;;;;;;;0.75;0.75;;;-1.30;99.90;;;;;;5033145;28;20186;-77
2024/01/13 09:52:38;;;;;;;0.80;0.80;;;-1.30;99.90;;;;;;5032910;28;20650;-76
2024/01/13 09:55:07;;;;;;;0.63;0.63;;;-1.30;99.90;;;;;;5033086;28;20281;-76
2024/01/13 09:57:34;;;;;;;0.63;0.63;;;-1.20;99.90;;;;;;5032778;28;20658;-77
2024/01/13 10:00:00;;;;;;;0.82;0.82;;;-1.20;99.90;;;;;;5032716;28;20196;-76
2024/01/13 10:02:26;;;;;;;0.70;0.70;;;-1.20;99.90;;;;;;5030985;28;20252;-76
2024/01/13 10:04:51;;;;;;;0.68;0.68;;;-1.20;99.90;;;;;;5031471;28;20222;-76
2024/01/13 10:07:17;;;;;;;1.13;1.02;;;-1.20;99.90;;;;;;5032834;28;20320;-76
2024/01/13 10:09:43;;;;;;;1.35;1.23;;;-1.30;99.90;;;;;;5032616;28;20575;-76
2024/01/13 10:12:09;;;;;;;0.70;0.70;;;-1.20;99.90;;;;;;5032735;28;20186;-76
2024/01/13 10:14:38;;;;;;;0.85;0.85;;;-1.20;99.90;;;;;;5032469;28;20205;-76
2024/01/13 10:17:05;;;;;;;0.75;0.75;;;-1.10;99.90;;;;;;5032764;28;20252;-76
2024/01/13 10:19:38;;;;;;;3.70;1.63;;;-1.10;99.90;;;;;;5035799;28;20638;-76
2024/01/13 10:22:05;;;;;;;1.38;1.27;;;-1.10;99.90;;;;;;5036528;28;20194;-76
2024/01/13 10:24:31;;;;;;;1.80;1.23;;;-1.10;99.90;;;;;;5036352;28;20658;-76
2024/01/13 10:26:57;;;;;;;0.70;0.70;;;-1.10;99.90;;;;;;5036421;28;20248;-76
2024/01/13 10:29:23;;;;;;;0.88;0.88;;;-1.10;99.90;;;;;;5036381;28;20273;-76
2024/01/13 10:31:51;;;;;;;0.80;0.80;;;-1.20;99.90;;;;;;5036656;28;20198;-76
2024/01/13 10:34:19;;;;;;;0.90;0.90;;;-1.20;99.90;;;;;;5035115;28;20336;-76
2024/01/13 10:36:45;;;;;;;0.82;0.82;;;-1.20;99.90;;;;;;5036264;28;20332;-76
2024/01/13 10:39:10;;;;;;;0.70;0.70;;;-1.10;99.90;;;;;;5036438;28;20265;-76
2024/01/13 10:41:41;;;;;;;0.70;0.70;;;-1.10;99.90;;;;;;5036134;28;20191;-76
2024/01/13 10:44:09;;;;;;;0.70;0.70;;;-1.10;99.90;;;;;;5036524;28;20198;-77
2024/01/13 10:46:38;;;;;;;0.50;0.50;;;-1.10;99.90;;;;;;5035930;28;20206;-76
2024/01/13 10:49:31;;;;;;;0.70;0.70;;;-1.10;99.90;;;;;;5018296;28;20210;-76
2024/01/13 10:51:58;;;;;;;0.85;0.85;;;-1.10;99.90;;;;;;5029512;28;20207;-76
2024/01/13 10:54:27;;;;;;;0.90;0.90;;;-1.10;99.90;;;;;;5035734;28;20628;-76
2024/01/13 10:56:53;;;;;;;0.85;0.85;;;-1.10;99.90;;;;;;5035676;28;20198;-76
2024/01/13 10:59:19;;;;;;;0.63;0.63;;;-1.10;99.90;;;;;;5035686;28;20297;-75
2024/01/13 11:01:47;;;;;;;1.10;1.00;;;-1.10;99.90;;;;;;5018052;28;20280;-75
2024/01/13 11:04:14;;;;;;;0.70;0.70;;;-1.10;99.90;;;;;;5035563;28;20252;-76
2024/01/13 11:06:41;;;;;;;0.60;0.60;;;-1.10;99.90;;;;;;5035677;28;20271;-76
2024/01/13 11:09:11;;;;;;;0.68;0.68;;;-1.10;99.90;;;;;;5017853;28;20269;-76
2024/01/13 11:11:47;;;;;;;0.75;0.75;;;-1.00;99.90;;;;;;5035414;28;20201;-76
2024/01/13 11:14:19;;;;;;;0.70;0.70;;;-1.00;99.90;;;;;;5035432;28;20267;-75
2024/01/13 11:16:45;;;;;;;0.63;0.63;;;-0.90;99.90;;;;;;5035609;28;20255;-75
2024/01/13 11:19:11;;;;;;;0.80;0.80;;;-0.90;99.90;;;;;;5035545;28;20556;-75
2024/01/13 11:21:38;;;;;;;0.70;0.70;;;-0.90;99.90;;;;;;5017453;28;20206;-75
2024/01/13 11:24:10;;;;;;;0.90;0.90;;;-0.90;99.90;;;;;;5035336;28;20206;-75
2024/01/13 11:26:48;;;;;;;1.05;1.02;;;-0.90;99.90;;;;;;5035141;28;20191;-75
2024/01/13 11:29:19;;;;;;;1.05;1.05;;;-0.80;99.90;;;;;;5035038;28;20194;-75
2024/01/13 11:31:45;;;;;;;0.60;0.60;;;-0.70;99.90;;;;;;5035762;28;20638;-75
2024/01/13 11:34:16;;;;;;;1.25;0.90;;;-0.70;99.90;;;;;;5035382;28;20194;-76
2024/01/13 11:36:50;;;;;;;0.70;0.70;;;-0.70;99.90;;;;;;5035254;28;20606;-76
2024/01/13 11:39:17;;;;;;;1.25;1.17;;;-0.60;99.90;;;;;;5035261;28;20595;-76
2024/01/13 11:41:56;;;;;;;1.45;1.35;;;-0.50;99.90;;;;;;5034974;28;20194;-75
2024/01/13 11:44:23;;;;;;;0.70;0.70;;;-0.50;99.90;;;;;;5034729;28;20201;-75
2024/01/13 11:47:06;;;;;;;0.80;0.80;;;-0.50;99.90;;;;;;5017265;28;20221;-75
2024/01/13 11:49:33;;;;;;;0.73;0.73;;;-0.50;99.90;;;;;;5034828;28;20187;-75
2024/01/13 11:52:04;;;;;;;0.60;0.60;;;-0.40;99.90;;;;;;5035091;28;20190;-75
2024/01/13 11:54:31;;;;;;;0.70;0.70;;;-0.40;99.90;;;;;;5034609;28;20283;-75
2024/01/13 11:56:58;;;;;;;0.80;0.80;;;-0.20;99.90;;;;;;5033757;28;20251;-75
2024/01/13 11:59:24;;;;;;;0.80;0.80;;;0.10;99.90;;;;;;5034694;28;20194;-75
2024/01/13 12:01:52;;;;;;;0.70;0.70;;;0.30;99.90;;;;;;5034992;28;20248;-75
2024/01/13 12:04:18;;;;;;;0.52;0.52;;;0.40;99.90;;;;;;5035294;28;20201;-75
2024/01/13 12:06:45;;;;;;;0.65;0.65;;;0.40;99.90;;;;;;5038493;28;20741;-78
2024/01/13 12:09:12;;;;;;;0.70;0.70;;;0.40;99.90;;;;;;5055077;28;20639;-77
2024/01/13 12:11:46;;;;;;;1.23;1.13;;;0.40;99.90;;;;;;5057888;28;20213;-76
2024/01/13 12:14:13;;;;;;;0.63;0.63;;;0.50;99.90;;;;;;5056790;28;20220;-75
2024/01/13 12:16:38;;;;;;;0.60;0.60;;;0.60;99.90;;;;;;5049470;28;20201;-76
2024/01/13 12:19:04;;;;;;;0.70;0.70;;;0.60;99.90;;;;;;5036765;28;20214;-76
2024/01/13 12:21:30;;;;;;;0.70;0.70;;;0.50;99.90;;;;;;5017413;28;20203;-76
2024/01/13 12:23:57;;;;;;;0.70;0.70;;;0.50;99.90;;;;;;5015960;28;20229;-76
2024/01/13 12:26:28;;;;;;;0.70;0.70;;;0.40;99.90;;;;;;5015258;28;20195;-75
2024/01/13 12:28:54;;;;;;;0.60;0.60;;;0.30;99.90;;;;;;5030192;28;20635;-75
2024/01/13 12:31:21;;;;;;;0.70;0.70;;;0.10;99.90;;;;;;5034603;28;20234;-76
2024/01/13 12:33:46;;;;;;;0.80;0.80;;;0.00;99.90;;;;;;5034181;28;20206;-75
2024/01/13 12:36:13;;;;;;;0.60;0.60;;;-0.10;99.90;;;;;;5034315;28;20216;-76
2024/01/13 12:38:39;;;;;;;0.70;0.70;;;-0.20;99.90;;;;;;5033908;28;20206;-76
2024/01/13 12:41:08;;;;;;;0.70;0.70;;;-0.30;99.90;;;;;;5033151;28;20544;-76
2024/01/13 12:43:36;;;;;;;0.70;0.70;;;-0.40;99.90;;;;;;5033720;28;20194;-76